createdAt,value
2017-10-05T00:10:11.291Z,0
2017-10-05T00:20:25.651Z,0
2017-10-05T00:30:40.582Z,0
2017-10-05T00:40:53.897Z,0
2017-10-05T00:51:07.486Z,0
2017-10-05T01:01:21.811Z,0
2017-10-05T01:11:35.324Z,0
2017-10-05T01:21:48.696Z,0
2017-10-05T01:32:02.196Z,0
2017-10-05T01:42:16.930Z,0
2017-10-05T01:52:30.409Z,0
2017-10-05T02:02:44.513Z,0
2017-10-05T02:12:58.403Z,0
2017-10-05T02:23:12.036Z,0
2017-10-05T02:33:26.044Z,0
2017-10-05T02:43:39.231Z,0
2017-10-05T02:53:52.711Z,0
2017-10-05T03:04:06.325Z,0
2017-10-05T03:14:21.096Z,0
2017-10-05T03:24:35.545Z,0
2017-10-05T03:34:50.337Z,0
2017-10-05T03:45:03.879Z,0
2017-10-05T03:55:16.901Z,0
2017-10-05T04:05:31.841Z,0
2017-10-05T04:35:30.957Z,0
2017-10-05T04:45:46.093Z,0
2017-10-05T04:56:00.504Z,0
2017-10-05T05:06:15.029Z,0
2017-10-05T05:16:30.185Z,0
2017-10-05T05:26:45.670Z,0
2017-10-05T05:37:00.386Z,0
2017-10-05T05:47:15.794Z,5
2017-10-05T05:57:29.610Z,5
2017-10-05T06:07:44.818Z,10
2017-10-05T06:17:58.787Z,15
2017-10-05T06:28:13.047Z,30
2017-10-05T06:38:27.639Z,35
2017-10-05T06:48:42.750Z,75
2017-10-05T06:58:56.502Z,75
2017-10-05T07:09:10.474Z,50
2017-10-05T07:19:25.834Z,60
2017-10-05T07:29:41.550Z,100
2017-10-05T07:39:55.937Z,105
2017-10-05T07:50:10.045Z,105
2017-10-05T08:00:24.532Z,120
2017-10-05T08:10:38.694Z,100
2017-10-05T08:20:54.357Z,165
2017-10-05T08:31:09.431Z,140
2017-10-05T08:41:24.206Z,370
2017-10-05T08:51:39.825Z,265
2017-10-05T09:01:54.977Z,280
2017-10-05T09:12:09.831Z,145
2017-10-05T09:22:24.457Z,190
2017-10-05T09:32:38.866Z,225
2017-10-05T09:42:53.598Z,275
2017-10-05T09:53:08.830Z,320
2017-10-05T10:03:24.588Z,560
2017-10-05T10:13:38.569Z,615
2017-10-05T10:23:53.856Z,785
2017-10-05T10:34:09.314Z,520
2017-10-05T10:44:25.094Z,475
2017-10-05T10:54:39.001Z,510
2017-10-05T11:04:54.541Z,420
2017-10-05T11:15:08.403Z,1220
2017-10-05T11:25:23.439Z,255
2017-10-05T11:35:38.917Z,675
2017-10-05T11:45:52.693Z,245
2017-10-05T11:56:06.934Z,525
2017-10-05T12:06:21.068Z,860
2017-10-05T12:16:35.882Z,340
2017-10-05T12:26:50.426Z,525
2017-10-05T12:37:04.851Z,410
2017-10-05T12:47:19.646Z,1185
2017-10-05T12:57:35.526Z,1525
2017-10-05T13:07:50.626Z,570
2017-10-05T13:18:06.054Z,1075
2017-10-05T13:28:21.001Z,1105
2017-10-05T13:38:35.224Z,1065
2017-10-05T13:48:49.761Z,1035
2017-10-05T13:59:03.594Z,990
2017-10-05T14:09:17.754Z,625
2017-10-05T14:19:33.514Z,645
2017-10-05T14:29:48.319Z,310
2017-10-05T14:40:02.142Z,250
2017-10-05T14:50:16.627Z,230
2017-10-05T15:00:31.662Z,420
2017-10-05T15:10:45.697Z,715
2017-10-05T15:21:00.821Z,580
2017-10-05T15:31:15.237Z,575
2017-10-05T15:41:30.887Z,495
2017-10-05T15:51:46.591Z,380
2017-10-05T16:02:01.245Z,140
2017-10-05T16:12:15.299Z,105
2017-10-05T16:22:29.889Z,80
2017-10-05T16:32:45.192Z,30
2017-10-05T16:42:59.298Z,50
2017-10-05T16:53:13.095Z,20
2017-10-05T17:03:27.081Z,5
2017-10-05T17:13:41.751Z,0
2017-10-05T17:23:56.245Z,0
2017-10-05T17:34:10.914Z,0
2017-10-05T17:44:26.256Z,0
2017-10-05T17:54:40.713Z,0
2017-10-05T18:04:55.245Z,0
2017-10-05T18:15:10.291Z,0
2017-10-05T18:25:24.201Z,0
2017-10-05T18:35:38.916Z,0
2017-10-05T18:45:54.322Z,0
2017-10-05T18:56:09.046Z,0
2017-10-05T19:06:24.431Z,0
2017-10-05T19:16:40.187Z,0
2017-10-05T19:26:54.840Z,0
2017-10-05T19:37:08.901Z,0
2017-10-05T19:47:22.994Z,0
2017-10-05T19:57:38.400Z,0
2017-10-05T20:07:53.176Z,0
2017-10-05T20:18:07.781Z,0
2017-10-05T20:28:22.395Z,0
2017-10-05T20:38:36.169Z,0
2017-10-05T20:48:51.214Z,0
2017-10-05T20:59:06.850Z,0
2017-10-05T21:09:20.704Z,0
2017-10-05T21:19:36.056Z,0
2017-10-05T21:29:50.518Z,0
2017-10-05T21:40:04.432Z,0
2017-10-05T21:50:19.245Z,0
2017-10-05T22:00:34.621Z,0
2017-10-05T22:10:49.145Z,0
2017-10-05T22:21:04.178Z,0
2017-10-05T22:31:18.014Z,0
2017-10-05T22:41:32.767Z,0
2017-10-05T22:51:48.070Z,0
2017-10-05T23:02:03.540Z,0
2017-10-05T23:12:17.252Z,0
2017-10-05T23:22:32.648Z,0
2017-10-05T23:32:47.623Z,0
2017-10-05T23:43:03.133Z,0
2017-10-05T23:53:17.273Z,0
